Terminal Aerodrome Forecast
Issued by NWS Tiyan, Guam

Home | Current Version | Previous Version | Text Only | Print | Product List | Glossary On
Versions: 1 2 3 4 5 6 7 8 9 10 11 12 13 14 15 16 17 18 19 20 21 22 23 24 25 26 27 28
686
FTPQ31 PGUM 152335
TAFGUM
TAF
PGUM 152335Z 1600/1706 08015G22KT P6SM VCSH FEW020 SCT035 BKN160
      TEMPO 1603/1607 4SM SHRA SCT018 OVC030
     FM160800 07009KT P6SM FEW018 SCT035 BKN120=

USA.gov is the U.S. government's official web portal to all federal, state and local government web resources and services.